Flight Track Log - Related Links

Times and Time Zones

All times are in EDT time to prevent confusion due to time zone crossing. See the SWA2114 flight status page for this flight to view local times or setup timezone preferences in your user account.

Time Position Orientation Groundspeed Altitude Reporting Facility
EDT Latitude Longitude Course Direction KTS MPH feet Rate Location/Type
Sat 07:32:24 PM 39.2833 -94.7333 180° South 144 166 2,700  Level Kansas City TRACON
Sat 07:33:24 PM 39.2333 -94.7167 166° South 195 224 5,600 2,638 Climbing Kansas City TRACON
Sat 07:34:20 PM 39.1728 -94.7111 176° South 235 270 7,800 2,817 Climbing Kansas City Center
Sat 07:35:19 PM 39.0981 -94.6922 169° South 279 321 11,000 3,295 Climbing Kansas City Center
Sat 07:36:22 PM 39.0119 -94.6714 169° South 325 374 14,500 3,360 Climbing Kansas City Center
Sat 07:37:24 PM 38.9053 -94.6444 169° South 349 402 18,000 3,197 Climbing Kansas City Center
Sat 07:38:24 PM 38.8064 -94.6208 169° South 372 428 21,000 2,975 Climbing Kansas City Center
Sat 07:39:25 PM 38.6850 -94.5911 169° South 398 458 24,000 2,613 Climbing Kansas City Center
Sat 07:40:28 PM 38.5956 -94.5136 146° Southeast 422 486 26,400 2,195 Climbing Kansas City Center
Sat 07:41:28 PM 38.5153 -94.4008 132° Southeast 446 513 28,500 2,049 Climbing Kansas City Center
Sat 07:42:31 PM 38.4214 -94.2656 132° Southeast 456 525 30,600 1,742 Climbing Kansas City Center
Sat 07:43:32 PM 38.3403 -94.1439 130° Southeast 467 537 32,100 1,918 Climbing Kansas City Center
Sat 07:44:33 PM 38.2461 -94.0050 131° Southeast 474 545 34,500 1,967 Climbing Kansas City Center
Sat 07:45:34 PM 38.1594 -93.8808 132° Southeast 472 543 36,100 1,475 Climbing Kansas City Center
Sat 07:46:35 PM 38.0717 -93.7539 131° Southeast 476 548 37,500 1,403 Climbing Kansas City Center
Sat 07:47:38 PM 37.9836 -93.6281 132° Southeast 477 549 39,000 1,220 Climbing Kansas City Center
Sat 07:48:38 PM 37.8969 -93.5053 132° Southeast 470 541 40,000 774 Climbing Kansas City Center
Sat 07:49:42 PM 37.8100 -93.3797 131° Southeast 473 544 40,600 480 Climbing Kansas City Center
Sat 07:50:43 PM 37.7028 -93.2272 132° Southeast 483 556 41,000 197 Climbing Kansas City Center
Sat 07:51:44 PM 37.6139 -93.1019 132° Southeast 483 556 41,000  Level Kansas City Center
Sat 07:52:46 PM 37.5236 -92.9758 132° Southeast 483 556 41,000  Level Kansas City Center
Sat 07:53:45 PM 37.4356 -92.8519 132° Southeast 478 550 41,000  Level Kansas City Center
Sat 07:54:48 PM 37.3489 -92.7311 132° Southeast 471 542 41,000  Level Kansas City Center
Sat 07:55:49 PM 37.2622 -92.6083 132° Southeast 470 541 41,000  Level Kansas City Center
Sat 07:56:50 PM 37.1731 -92.4867 133° Southeast 473 544 41,000  Level Kansas City Center
Sat 07:57:53 PM 37.0847 -92.3642 132° Southeast 474 545 41,000  Level Kansas City Center
Sat 07:58:54 PM 36.9772 -92.2169 132° Southeast 476 548 41,000  Level Kansas City Center
Sat 07:59:55 PM 36.8872 -92.0936 132° Southeast 479 551 41,000  Level Kansas City Center
Sat 08:00:56 PM 36.7978 -91.9697 132° Southeast 480 552 41,000  Level Kansas City Center
Sat 08:01:59 PM 36.7072 -91.8469 133° Southeast 480 552 41,000  Level Kansas City Center
Sat 08:03:01 PM 36.6164 -91.7228 132° Southeast 482 555 41,000  Level Kansas City Center
Sat 08:03:56 PM 36.5214 -91.5964 133° Southeast 478 550 41,000  Level Memphis Center
Sat 08:04:56 PM 36.4289 -91.4764 134° Southeast 478 550 41,000  Level Memphis Center
Sat 08:05:56 PM 36.3381 -91.3567 133° Southeast 478 550 41,000  Level Memphis Center
Sat 08:06:56 PM 36.2472 -91.2344 133° Southeast 478 550 41,000  Level Memphis Center
Sat 08:07:56 PM 36.1583 -91.1153 133° Southeast 478 550 41,000  Level Memphis Center
Sat 08:08:56 PM 36.0694 -90.9964 133° Southeast 471 542 41,000  Level Memphis Center
Sat 08:09:56 PM 35.9803 -90.8778 133° Southeast 476 548 41,000  Level Memphis Center
Sat 08:10:56 PM 35.8972 -90.7694 133° Southeast 483 556 41,000  Level Memphis Center
Sat 08:11:56 PM 35.8081 -90.6514 133° Southeast 483 556 41,000  Level Memphis Center
Sat 08:12:56 PM 35.7164 -90.5308 133° Southeast 477 549 41,000  Level Memphis Center
Sat 08:13:56 PM 35.6311 -90.4106 131° Southeast 471 542 41,000  Level Memphis Center
Sat 08:14:56 PM 35.5392 -90.2933 134° Southeast 471 542 41,000  Level Memphis Center
Sat 08:15:56 PM 35.4389 -90.1633 133° Southeast 478 550 41,000  Level Memphis Center
Sat 08:16:56 PM 35.3469 -90.0439 133° Southeast 477 549 41,000  Level Memphis Center
Sat 08:17:56 PM 35.2569 -89.9247 133° Southeast 477 549 41,000  Level Memphis Center
Sat 08:18:56 PM 35.1647 -89.8083 134° Southeast 477 549 41,000  Level Memphis Center
Sat 08:19:56 PM 35.0744 -89.6897 133° Southeast 472 543 41,000  Level Memphis Center
Sat 08:20:56 PM 34.9819 -89.5689 133° Southeast 477 549 41,000  Level Memphis Center
Sat 08:21:56 PM 34.8956 -89.4658 136° Southeast 477 549 41,000  Level Memphis Center
Sat 08:22:56 PM 34.8050 -89.3531 134° Southeast 477 549 41,000  Level Memphis Center
Sat 08:23:56 PM 34.7103 -89.2378 135° Southeast 477 549 41,000  Level Memphis Center
Sat 08:24:56 PM 34.6194 -89.1206 133° Southeast 477 549 41,000  Level Memphis Center
Sat 08:25:56 PM 34.5158 -88.9936 135° Southeast 477 549 41,000  Level Memphis Center
Sat 08:26:56 PM 34.4225 -88.8767 134° Southeast 477 549 41,000  Level Memphis Center
Sat 08:27:56 PM 34.3294 -88.7675 136° Southeast 472 543 41,000  Level Memphis Center
Sat 08:28:56 PM 34.2339 -88.6489 134° Southeast 472 543 41,000  Level Memphis Center
Sat 08:29:56 PM 34.1406 -88.5328 134° Southeast 477 549 41,000  Level Memphis Center
Sat 08:30:56 PM 34.0447 -88.4194 136° Southeast 477 549 41,000  Level Memphis Center
Sat 08:31:56 PM 33.9511 -88.3014 134° Southeast 477 549 41,000  Level Memphis Center
Sat 08:32:56 PM 33.8572 -88.1786 133° Southeast 482 555 41,000  Level Memphis Center
Sat 08:33:56 PM 33.7614 -88.0711 137° Southeast 477 549 41,000  Level Memphis Center
Sat 08:35:27 PM 33.6289 -87.9108 135° Southeast 476 548 41,000  Level Atlanta Center
Sat 08:36:27 PM 33.5344 -87.7994 135° Southeast 476 548 41,000  Level Atlanta Center
Sat 08:37:27 PM 33.4419 -87.6833 134° Southeast 476 548 41,000  Level Atlanta Center
Sat 08:38:27 PM 33.3469 -87.5700 135° Southeast 476 548 41,000  Level Atlanta Center
Sat 08:39:27 PM 33.2522 -87.4519 134° Southeast 476 548 41,000  Level Atlanta Center
Sat 08:40:27 PM 33.1553 -87.3389 136° Southeast 476 548 41,000  Level Atlanta Center
Sat 08:41:27 PM 33.0622 -87.2264 135° Southeast 476 548 41,000  Level Atlanta Center
Sat 08:42:27 PM 32.9608 -87.1014 134° Southeast 476 548 41,000  Level Atlanta Center
Sat 08:43:27 PM 32.8656 -86.9942 137° Southeast 471 542 41,000  Level Atlanta Center
Sat 08:44:27 PM 32.7700 -86.8822 135° Southeast 476 548 41,000  Level Atlanta Center
Sat 08:45:27 PM 32.6767 -86.7681 134° Southeast 476 548 41,000  Level Atlanta Center
Sat 08:46:27 PM 32.5789 -86.6592 137° Southeast 476 548 41,000  Level Atlanta Center
Sat 08:47:27 PM 32.4892 -86.5531 135° Southeast 476 548 41,000  Level Atlanta Center
Sat 08:48:27 PM 32.3953 -86.4447 136° Southeast 475 547 41,000  Level Atlanta Center
Sat 08:49:27 PM 32.2908 -86.3361 139° Southeast 497 572 41,000  Level Atlanta Center
Sat 08:50:27 PM 32.1950 -86.2133 133° Southeast 492 566 41,000  Level Atlanta Center
Sat 08:51:27 PM 32.1008 -86.1033 135° Southeast 478 550 41,000  Level Atlanta Center
Sat 08:52:27 PM 32.0044 -85.9983 137° Southeast 488 562 41,000  Level Atlanta Center
Sat 08:54:16 PM 31.8122 -85.7797 136° Southeast 501 577 41,000  Level Jacksonville Center
Sat 08:55:16 PM 31.7144 -85.6694 136° Southeast 501 577 41,000  Level Jacksonville Center
Sat 08:56:16 PM 31.6167 -85.5567 135° Southeast 501 577 41,000  Level Jacksonville Center
Sat 08:57:16 PM 31.5186 -85.4467 136° Southeast 496 571 41,000  Level Jacksonville Center
Sat 08:58:16 PM 31.4206 -85.3344 136° Southeast 496 571 41,000  Level Jacksonville Center
Sat 08:59:16 PM 31.3247 -85.2225 135° Southeast 491 565 41,000  Level Jacksonville Center
Sat 09:00:16 PM 31.2447 -85.1378 138° Southeast 483 556 41,000  Level Jacksonville Center
Sat 09:01:16 PM 31.1319 -85.0139 137° Southeast 496 571 41,000  Level Jacksonville Center
Sat 09:02:16 PM 31.0233 -84.8878 135° Southeast 496 571 41,000  Level Jacksonville Center
Sat 09:03:16 PM 30.9308 -84.7914 138° Southeast 496 571 41,000  Level Jacksonville Center
Sat 09:04:16 PM 30.8322 -84.6806 136° Southeast 496 571 41,000 -50 Level Jacksonville Center
Sat 09:05:16 PM 30.7211 -84.5575 136° Southeast 487 560 40,900  Descending Jacksonville Center
Sat 09:06:16 PM 30.6306 -84.4594 137° Southeast 496 571 41,000  Climbing Jacksonville Center
Sat 09:07:16 PM 30.5192 -84.3514 140° Southeast 486 559 40,900  Descending Jacksonville Center
Sat 09:08:16 PM 30.4053 -84.2750 150° Southeast 478 550 41,000  Climbing Jacksonville Center
Sat 09:09:16 PM 30.2911 -84.2014 151° Southeast 473 544 40,900 -50 Descending Jacksonville Center
Sat 09:10:16 PM 30.1917 -84.1375 151° Southeast 467 537 40,900  Level Jacksonville Center
Sat 09:11:16 PM 30.0817 -84.0639 150° Southeast 457 526 40,900  Level Jacksonville Center
Sat 09:12:16 PM 29.9653 -83.9906 151° Southeast 457 526 40,900  Level Jacksonville Center
Sat 09:13:16 PM 29.8531 -83.9175 151° Southeast 457 526 40,900 50 Level Jacksonville Center
Sat 09:14:16 PM 29.7411 -83.8469 151° Southeast 457 526 41,000  Climbing Jacksonville Center
Sat 09:15:16 PM 29.6267 -83.7742 151° Southeast 457 526 40,900  Descending Jacksonville Center
Sat 09:16:16 PM 29.5000 -83.6894 150° Southeast 463 533 41,000 50 Climbing Jacksonville Center
Sat 09:17:16 PM 29.3856 -83.6172 151° Southeast 468 539 41,000 -50 Level Jacksonville Center
Sat 09:18:16 PM 29.2669 -83.5425 151° Southeast 478 550 40,900  Descending Jacksonville Center
Sat 09:19:16 PM 29.1525 -83.4681 150° Southeast 478 550 41,000  Climbing Jacksonville Center
Sat 09:20:16 PM 29.0358 -83.3936 151° Southeast 478 550 40,900 -50 Descending Jacksonville Center
Sat 09:21:16 PM 28.9172 -83.3219 152° Southeast 478 550 40,900  Level Jacksonville Center
Sat 09:22:16 PM 28.8025 -83.2528 152° Southeast 478 550 40,900 50 Level Jacksonville Center
Sat 09:23:16 PM 28.6858 -83.1861 153° Southeast 468 539 41,000  Climbing Jacksonville Center
Sat 09:24:16 PM 28.5714 -83.1147 151° Southeast 468 539 40,900 -50 Descending Jacksonville Center
Sat 09:25:16 PM 28.4544 -83.0508 154° Southeast 468 539 40,900  Level Jacksonville Center
Sat 09:26:07 PM 28.3511 -82.9911 153° Southeast 467 537 40,900  Level Miami Center
Sat 09:27:07 PM 28.2372 -82.9239 153° Southeast 462 532 40,900  Level Miami Center
Sat 09:28:07 PM 28.1192 -82.8564 153° Southeast 462 532 40,900  Level Miami Center
Sat 09:29:07 PM 27.9989 -82.7842 152° Southeast 474 545 40,900  Level Miami Center
Sat 09:30:07 PM 27.8847 -82.7194 153° Southeast 474 545 40,900 50 Level Miami Center
Sat 09:31:07 PM 27.7708 -82.6525 153° Southeast 474 545 41,000 50 Climbing Miami Center
Sat 09:32:07 PM 27.6736 -82.5775 146° Southeast 467 537 41,000  Level Miami Center
Sat 09:33:07 PM 27.5628 -82.4736 140° Southeast 475 547 41,000  Level Miami Center
Sat 09:34:07 PM 27.4581 -82.3819 142° Southeast 475 547 41,000 -150 Level Miami Center
Sat 09:35:07 PM 27.3569 -82.2906 141° Southeast 475 547 40,700 -850 Descending Miami Center
Sat 09:36:07 PM 27.2642 -82.2067 141° Southeast 475 547 39,300 -1,967 Descending Miami Center
Sat 09:37:09 PM 27.1572 -82.1108 141° Southeast 481 554 36,700 -3,100 Descending Miami Center
Sat 09:38:07 PM 27.0378 -82.0031 141° Southeast 488 562 33,100 -3,328 Descending Miami Center
Sat 09:39:08 PM 26.9406 -81.9172 142° Southeast 493 567 30,100 -2,700 Descending Miami Center
Sat 09:40:07 PM 26.8314 -81.8217 142° Southeast 502 578 27,700 -1,850 Descending Miami Center
Sat 09:41:08 PM 26.7322 -81.7244 139° Southeast 491 565 26,400 -2,115 Descending Miami Center
Sat 09:42:09 PM 26.6269 -81.6294 141° Southeast 463 533 23,400 -2,727 Descending Miami Center
Sat 09:43:09 PM 26.5467 -81.5264 131° Southeast 438 504 20,900 -2,430 Descending Miami Center
Sat 09:44:10 PM 26.4703 -81.4306 132° Southeast 422 486 18,500 -2,441 Descending Miami Center
Sat 09:45:07 PM 26.3981 -81.3375 131° Southeast 410 472 16,100 -2,441 Descending Miami Center
Sat 09:46:08 PM 26.3278 -81.2492 132° Southeast 396 456 13,700 -2,350 Descending Miami Center
Sat 09:47:07 PM 26.2594 -81.1608 131° Southeast 384 442 11,400 -2,207 Descending Miami Center
Sat 09:47:35 PM 26.2308 -81.1319 138° Southeast 365 420 10,500 -1,279 Descending Miami Center
Sat 09:48:08 PM 26.1969 -81.0822 127° Southeast 360 414 10,100 -625 Descending Miami Center
Sat 09:48:23 PM 26.1786 -81.0675 144° Southeast 328 377 10,000 -1,300 Descending Miami Center
Sat 09:49:08 PM 26.1383 -81.0106 128° Southeast 329 379 8,800 -1,500 Descending Miami Center
Sat 09:49:23 PM 26.1242 -80.9986 143° Southeast 289 333 8,500 -1,180 Descending Miami Center
Sat 09:50:09 PM 26.1114 -80.9333 102° East 279 321 7,600 -1,082 Descending Miami Center
Sat 09:50:24 PM 26.1056 -80.9169 112° Southeast 281 323 7,400 -1,034 Descending Miami Center
Sat 09:51:07 PM 26.1053 -80.8453 90° East 279 321 6,600 -968 Descending Miami Center
Sat 09:51:26 PM 26.0997 -80.8197 104° East 283 326 6,400 -689 Descending Miami Center
Sat 09:52:08 PM 26.0994 -80.7572 90° East 274 315 5,900 -400 Descending Miami Center
Sat 09:52:26 PM 26.0958 -80.7339 100° East 283 326 6,000  Climbing Miami Center
Sat 09:53:08 PM 26.0975 -80.6717 88° East 279 321 5,900 -600 Descending Miami Center
Sat 09:53:26 PM 26.0897 -80.6458 109° East 283 326 5,400 -984 Descending Miami Center
Sat 09:54:09 PM 26.0911 -80.5950 88° East 279 321 4,900 -393 Descending Miami Center
Sat 09:54:27 PM 26.0858 -80.5581 99° East 281 323 5,000 -300 Climbing Miami Center
Sat 09:55:09 PM 26.0869 -80.5094 89° East 279 321 4,600 -952 Descending Miami Center
Sat 09:55:30 PM 26.0817 -80.4744 100° East 276 318 4,000 -885 Descending Miami Center
Sat 09:56:10 PM 26.0808 -80.4236 91° East 274 315 3,700 -873 Descending Miami Center
Sat 09:56:25 PM 26.0772 -80.3981 99° East 270 311 3,200 -1,021 Descending Miami Center
Sat 09:57:44 PM 26.0753 -80.3008 91° East 221 254 2,100 -857 Descending Miami Center
Sat 09:58:45 PM 26.0747 -80.2383 91° East 180 207 1,200 -879 Descending Miami Center
Sat 09:59:40 PM 26.0736 -80.1944 92° East 141 162 400 -873 Descending Miami Center
Sat 10:01:00 PM 26.0667 -80.1500 180° South  Level FlightAware Approximate
Sat 10:08:00 PM 26.0726 -80.1527 180° South  Level Estimated

Login

Don't have an account? Register now (free) for customized features, flight alerts, and more!